Time;durP1;ratioP1;P1;durP2;ratioP2;P2;SDS_P1;SDS_P2;PMS_P1;PMS_P2;Temp;Humidity;BMP_temperature;BMP_pressure;BME280_temperature;BME280_humidity;BME280_pressure;Samples;Min_cycle;Max_cycle;Signal;HPM_P1;HPM_P2
2022/10/20 00:02:15;;;;;;;3.70;1.50;;;;;;;5.78;100.00;101829.13;7396556;19;20449;-55
2022/10/20 00:04:45;;;;;;;2.60;1.90;;;;;;;5.64;100.00;101822.97;7396172;19;20396;-55
2022/10/20 00:07:14;;;;;;;3.87;1.87;;;;;;;5.47;100.00;101827.63;7393659;19;20449;-55
2022/10/20 00:09:44;;;;;;;3.60;1.70;;;;;;;5.53;100.00;101830.66;7395448;19;20386;-56
2022/10/20 00:12:16;;;;;;;3.50;1.87;;;;;;;5.54;100.00;101840.13;7392695;19;20411;-57
2022/10/20 00:14:45;;;;;;;3.07;2.03;;;;;;;5.72;100.00;101839.81;7394941;19;20385;-61
2022/10/20 00:17:15;;;;;;;4.50;2.10;;;;;;;5.65;100.00;101834.97;7394933;19;20426;-51
2022/10/20 00:19:44;;;;;;;4.73;2.00;;;;;;;5.70;100.00;101838.81;7395078;19;20398;-58
2022/10/20 00:22:14;;;;;;;3.47;1.90;;;;;;;5.68;100.00;101832.66;7392034;19;20438;-56
2022/10/20 00:24:43;;;;;;;4.00;1.90;;;;;;;5.58;100.00;101827.59;7395317;19;20407;-56
2022/10/20 00:27:15;;;;;;;5.70;1.60;;;;;;;5.56;100.00;101831.69;7397237;19;20443;-53
2022/10/20 00:29:44;;;;;;;3.70;1.70;;;;;;;5.54;100.00;101829.91;7397848;19;20409;-55
2022/10/20 00:32:14;;;;;;;6.13;1.70;;;;;;;5.57;100.00;101843.69;7392284;19;20427;-55
2022/10/20 00:34:43;;;;;;;3.27;2.00;;;;;;;5.79;100.00;101847.19;7394887;19;20894;-58
2022/10/20 00:37:13;;;;;;;4.80;1.77;;;;;;;5.73;100.00;101843.25;7393942;19;20796;-55
2022/10/20 00:39:42;;;;;;;3.70;1.70;;;;;;;5.73;100.00;101846.72;7398837;19;20394;-55
2022/10/20 00:42:16;;;;;;;5.23;1.90;;;;;;;5.74;100.00;101858.75;7391975;19;20405;-55
2022/10/20 00:44:55;;;;;;;9.13;3.23;;;;;;;5.72;100.00;101851.72;7394770;19;20393;-52
2022/10/20 00:47:34;;;;;;;2.50;1.57;;;;;;;5.78;100.00;101853.09;7392919;19;20420;-59
2022/10/20 00:50:08;;;;;;;4.60;2.10;;;;;;;5.90;100.00;101849.72;7391640;19;20406;-53
2022/10/20 00:52:39;;;;;;;3.20;1.40;;;;;;;5.85;100.00;101838.22;7394523;19;20388;-59
2022/10/20 00:55:10;;;;;;;4.80;1.90;;;;;;;6.10;100.00;101845.28;7392124;19;20433;-55
2022/10/20 00:57:43;;;;;;;5.53;1.47;;;;;;;6.02;100.00;101849.78;7394337;19;20410;-54
2022/10/20 01:00:14;;;;;;;8.40;1.70;;;;;;;5.91;100.00;101851.50;7389907;19;20461;-55
2022/10/20 01:02:44;;;;;;;4.67;1.60;;;;;;;6.04;100.00;101844.03;7392915;19;20412;-55
2022/10/20 01:05:14;;;;;;;4.63;1.67;;;;;;;5.95;100.00;101833.03;7387188;19;20416;-55
2022/10/20 01:07:43;;;;;;;3.70;1.80;;;;;;;5.94;100.00;101846.59;7392444;19;20386;-55
2022/10/20 01:10:13;;;;;;;3.47;1.60;;;;;;;5.88;100.00;101836.78;7389620;19;20411;-58
2022/10/20 01:12:49;;;;;;;5.10;1.97;;;;;;;5.88;100.00;101846.13;7393652;19;20747;-54
2022/10/20 01:15:25;;;;;;;6.60;1.80;;;;;;;5.86;100.00;101847.69;7388613;19;20412;-52
2022/10/20 01:18:02;;;;;;;5.83;1.60;;;;;;;5.86;100.00;101848.59;7386046;19;20402;-57
2022/10/20 01:21:03;;;;;;;5.43;1.97;;;;;;;5.79;100.00;101836.97;7390429;19;20962;-53
2022/10/20 01:23:48;;;;;;;4.53;2.30;;;;;;;5.87;100.00;101823.84;7393480;19;20388;-56
2022/10/20 01:26:44;;;;;;;5.93;1.70;;;;;;;5.89;100.00;101824.88;7390513;19;20441;-51
2022/10/20 01:29:21;;;;;;;2.57;1.43;;;;;;;5.98;100.00;101828.16;7393169;19;20413;-56
2022/10/20 01:31:54;;;;;;;5.97;1.87;;;;;;;5.89;100.00;101827.44;7388194;19;20443;-59
2022/10/20 01:34:31;;;;;;;6.70;1.90;;;;;;;6.03;100.00;101828.53;7393332;19;20381;-57
2022/10/20 01:37:08;;;;;;;3.07;1.53;;;;;;;5.87;100.00;101822.19;7379797;19;20444;-53
2022/10/20 01:39:44;;;;;;;3.70;1.93;;;;;;;5.89;100.00;101812.94;7393430;19;20381;-54
2022/10/20 01:42:16;;;;;;;3.80;1.80;;;;;;;5.96;100.00;101824.59;7390287;19;20436;-57
2022/10/20 01:44:49;;;;;;;3.20;1.80;;;;;;;5.99;100.00;101823.94;7390913;19;20381;-61
2022/10/20 01:47:20;;;;;;;3.93;1.90;;;;;;;5.91;100.00;101815.63;7391324;19;20408;-58
2022/10/20 01:49:50;;;;;;;3.90;1.90;;;;;;;5.88;100.00;101807.69;7389253;19;20779;-57
2022/10/20 01:52:20;;;;;;;4.43;1.83;;;;;;;5.96;100.00;101801.53;7390066;19;20440;-56
2022/10/20 01:54:49;;;;;;;2.23;1.53;;;;;;;5.85;100.00;101798.09;7391276;19;20394;-54
2022/10/20 01:57:34;;;;;;;4.80;2.17;;;;;;;5.90;100.00;101795.94;7392288;19;20376;-59
2022/10/20 02:00:09;;;;;;;4.90;1.70;;;;;;;5.98;100.00;101799.06;7389431;19;20383;-56
2022/10/20 02:02:57;;;;;;;3.47;1.83;;;;;;;6.02;100.00;101795.97;7392615;19;20393;-57
2022/10/20 02:05:35;;;;;;;3.90;1.87;;;;;;;5.92;100.00;101781.56;7387678;19;20434;-55
2022/10/20 02:08:10;;;;;;;4.37;1.77;;;;;;;6.06;100.00;101785.22;7390854;19;20409;-54
2022/10/20 02:10:45;;;;;;;6.50;2.10;;;;;;;5.80;100.00;101787.50;7388498;19;20427;-57
2022/10/20 02:13:15;;;;;;;3.03;1.80;;;;;;;5.79;100.00;101783.16;7392676;19;20948;-53
2022/10/20 02:15:49;;;;;;;8.37;2.40;;;;;;;5.75;100.00;101778.56;7395115;19;20436;-50
2022/10/20 02:18:22;;;;;;;3.37;1.77;;;;;;;5.61;100.00;101774.97;7399804;19;20390;-53
2022/10/20 02:20:54;;;;;;;3.40;1.90;;;;;;;5.50;100.00;101770.66;7395133;19;20433;-54
2022/10/20 02:23:23;;;;;;;4.03;1.80;;;;;;;5.48;100.00;101762.84;7399526;19;20417;-59
2022/10/20 02:25:54;;;;;;;4.90;1.83;;;;;;;5.67;100.00;101748.91;7396993;19;20776;-57
2022/10/20 02:28:24;;;;;;;3.60;1.70;;;;;;;5.64;100.00;101746.13;7397045;19;20390;-52
2022/10/20 02:30:57;;;;;;;4.10;2.10;;;;;;;5.57;100.00;101731.03;7393299;19;20433;-54
2022/10/20 02:33:27;;;;;;;3.57;2.17;;;;;;;5.66;100.00;101724.97;7400241;19;20399;-55
2022/10/20 02:35:58;;;;;;;6.93;1.73;;;;;;;5.49;100.00;101723.66;7393154;19;20437;-53
2022/10/20 02:38:28;;;;;;;7.13;1.90;;;;;;;5.43;100.00;101727.44;7399051;19;20911;-60
2022/10/20 02:40:57;;;;;;;4.33;1.70;;;;;;;5.37;100.00;101725.28;7394371;19;20775;-55
2022/10/20 02:43:27;;;;;;;3.70;2.00;;;;;;;5.45;100.00;101726.78;7399106;19;20414;-56
2022/10/20 02:45:59;;;;;;;8.10;2.00;;;;;;;5.33;100.00;101720.72;7395763;19;20433;-54
2022/10/20 02:48:28;;;;;;;4.50;1.60;;;;;;;5.56;100.00;101726.72;7400997;19;20778;-59
2022/10/20 02:50:57;;;;;;;4.63;2.07;;;;;;;5.47;100.00;101732.00;7393680;19;20423;-57
2022/10/20 02:53:27;;;;;;;5.10;1.67;;;;;;;5.28;100.00;101735.66;7398744;19;20413;-53
2022/10/20 02:55:57;;;;;;;12.97;2.13;;;;;;;5.19;100.00;101732.41;7395761;19;20435;-57
2022/10/20 02:58:27;;;;;;;5.90;2.30;;;;;;;5.12;100.00;101726.78;7398406;19;20384;-60
2022/10/20 03:00:59;;;;;;;4.20;2.00;;;;;;;5.20;100.00;101732.53;7393598;19;20412;-59
2022/10/20 03:03:28;;;;;;;4.13;2.20;;;;;;;5.21;100.00;101734.31;7398560;19;20395;-57
2022/10/20 03:05:58;;;;;;;5.37;2.57;;;;;;;5.13;100.00;101735.38;7391440;19;20415;-55
2022/10/20 03:08:27;;;;;;;4.67;2.90;;;;;;;5.08;100.00;101727.31;7396217;19;20407;-57
2022/10/20 03:10:56;;;;;;;4.80;2.07;;;;;;;4.98;100.00;101727.38;7393776;19;20422;-60
2022/10/20 03:13:26;;;;;;;3.33;2.10;;;;;;;4.93;100.00;101734.66;7398155;19;20384;-50
2022/10/20 03:15:55;;;;;;;5.83;2.23;;;;;;;5.00;100.00;101729.28;7395307;19;20411;-59
2022/10/20 03:18:27;;;;;;;5.50;2.60;;;;;;;4.91;100.00;101731.09;7397835;19;20707;-61
2022/10/20 03:20:57;;;;;;;3.33;1.90;;;;;;;4.91;100.00;101731.09;7393011;19;20427;-58
2022/10/20 03:23:26;;;;;;;9.97;3.00;;;;;;;4.90;100.00;101728.41;7397183;19;20427;-58
2022/10/20 03:26:02;;;;;;;3.33;2.13;;;;;;;4.95;100.00;101729.66;7395028;19;20411;-56
2022/10/20 03:28:32;;;;;;;11.30;2.47;;;;;;;4.94;100.00;101736.47;7395803;19;20406;-54
2022/10/20 03:31:01;;;;;;;6.57;2.57;;;;;;;4.89;100.00;101722.41;7393146;19;20443;-56
2022/10/20 03:33:33;;;;;;;5.80;2.77;;;;;;;4.90;100.00;101726.75;7397420;19;20418;-54
2022/10/20 03:36:03;;;;;;;4.17;1.77;;;;;;;4.89;100.00;101719.84;7391346;19;20421;-51
2022/10/20 03:38:32;;;;;;;3.50;1.87;;;;;;;5.05;100.00;101724.53;7397110;19;20502;-61
2022/10/20 03:41:02;;;;;;;6.30;2.80;;;;;;;4.89;100.00;101722.41;7392732;19;20988;-57
2022/10/20 03:43:31;;;;;;;5.20;2.73;;;;;;;4.91;100.00;101725.97;7397233;19;20915;-58
2022/10/20 03:46:04;;;;;;;8.23;2.80;;;;;;;4.78;100.00;101725.75;7396043;19;20435;-56
2022/10/20 03:48:37;;;;;;;10.93;2.67;;;;;;;4.85;100.00;101722.91;7395218;19;20403;-57
2022/10/20 03:51:07;;;;;;;6.07;2.67;;;;;;;4.82;100.00;101722.69;7392892;19;20415;-56
2022/10/20 03:53:37;;;;;;;10.53;2.70;;;;;;;4.75;100.00;101712.72;7396724;19;20916;-54
2022/10/20 03:56:07;;;;;;;5.80;2.47;;;;;;;4.69;100.00;101708.91;7395391;19;20458;-58
2022/10/20 03:58:37;;;;;;;5.07;2.83;;;;;;;4.68;100.00;101712.22;7396284;19;20384;-56
2022/10/20 04:01:08;;;;;;;24.57;3.53;;;;;;;4.56;100.00;101711.25;7392407;19;20424;-56
2022/10/20 04:03:40;;;;;;;8.43;2.87;;;;;;;4.62;100.00;101705.72;7396468;19;20396;-54
2022/10/20 04:06:09;;;;;;;4.20;2.30;;;;;;;4.71;100.00;101704.81;7390555;19;20434;-51
2022/10/20 04:08:38;;;;;;;4.83;2.87;;;;;;;4.71;100.00;101699.69;7394953;19;20400;-53
2022/10/20 04:11:08;;;;;;;6.23;2.63;;;;;;;4.67;100.00;101697.66;7391814;19;20539;-55
2022/10/20 04:13:38;;;;;;;5.53;2.87;;;;;;;4.51;100.00;101692.09;7397496;19;20412;-59
2022/10/20 04:16:08;;;;;;;6.40;3.23;;;;;;;4.59;100.00;101691.94;7393486;19;20415;-55
2022/10/20 04:18:40;;;;;;;6.63;2.87;;;;;;;4.62;100.00;101696.41;7395797;19;20752;-57
2022/10/20 04:21:10;;;;;;;12.10;3.00;;;;;;;4.59;100.00;101698.69;7391455;19;20764;-60
2022/10/20 04:23:39;;;;;;;6.87;2.93;;;;;;;4.59;100.00;101696.16;7395315;19;20741;-61
2022/10/20 04:26:12;;;;;;;7.20;3.17;;;;;;;4.66;100.00;101693.31;7393124;19;20979;-55
2022/10/20 04:28:42;;;;;;;6.10;3.33;;;;;;;4.53;100.00;101693.09;7394071;19;20380;-57
2022/10/20 04:31:11;;;;;;;7.97;3.30;;;;;;;4.53;100.00;101681.22;7390999;19;20442;-56
2022/10/20 04:33:44;;;;;;;11.60;4.57;;;;;;;4.43;100.00;101683.78;7395209;19;20395;-53
2022/10/20 04:36:14;;;;;;;5.47;2.90;;;;;;;4.31;100.00;101689.66;7392134;19;20392;-55
2022/10/20 04:38:43;;;;;;;9.27;4.07;;;;;;;4.49;100.00;101686.84;7392231;19;20403;-55
2022/10/20 04:41:13;;;;;;;5.83;3.20;;;;;;;4.39;100.00;101682.63;7390648;19;20402;-55
2022/10/20 04:43:42;;;;;;;11.67;4.03;;;;;;;4.36;100.00;101687.47;7394786;19;20386;-55
2022/10/20 04:46:12;;;;;;;6.57;3.33;;;;;;;4.33;100.00;101680.47;7392337;19;20422;-59
2022/10/20 04:48:46;;;;;;;6.70;3.30;;;;;;;4.42;100.00;101667.53;7394445;19;20383;-53
2022/10/20 04:51:16;;;;;;;4.90;3.10;;;;;;;4.46;100.00;101661.00;7389672;19;20411;-52
2022/10/20 04:53:46;;;;;;;5.67;3.70;;;;;;;4.46;100.00;101649.16;7394330;19;20383;-53
2022/10/20 04:56:19;;;;;;;7.33;3.70;;;;;;;4.66;100.00;101641.31;7391720;19;20480;-54
2022/10/20 04:58:49;;;;;;;9.43;4.60;;;;;;;4.51;100.00;101635.84;7394426;19;20917;-57
2022/10/20 05:01:19;;;;;;;8.20;3.90;;;;;;;4.40;100.00;101638.44;7390381;19;20445;-55
2022/10/20 05:03:51;;;;;;;7.10;4.07;;;;;;;4.42;100.00;101636.88;7394309;19;20383;-53
2022/10/20 05:06:23;;;;;;;8.93;4.90;;;;;;;4.44;100.00;101634.44;7388019;19;20423;-55
2022/10/20 05:08:55;;;;;;;7.63;4.33;;;;;;;4.40;100.00;101625.66;7393402;19;20367;-58
2022/10/20 05:11:26;;;;;;;6.20;3.83;;;;;;;4.40;100.00;101627.28;7389916;19;20442;-56
2022/10/20 05:13:56;;;;;;;10.53;3.93;;;;;;;4.51;100.00;101617.97;7394087;19;20359;-55
2022/10/20 05:16:26;;;;;;;10.03;4.40;;;;;;;4.43;100.00;101623.34;7391484;19;20419;-53
2022/10/20 05:18:58;;;;;;;9.70;4.40;;;;;;;4.49;100.00;101611.81;7393747;19;20412;-57
2022/10/20 05:21:30;;;;;;;7.40;4.50;;;;;;;4.63;100.00;101595.94;7389554;19;20415;-54
2022/10/20 05:24:01;;;;;;;8.43;4.40;;;;;;;4.53;100.00;101594.31;7394669;19;20388;-51
2022/10/20 05:26:33;;;;;;;7.97;4.17;;;;;;;4.38;100.00;101587.97;7390536;19;20411;-56
2022/10/20 05:29:04;;;;;;;7.80;4.10;;;;;;;4.50;100.00;101583.81;7392678;19;20390;-50
2022/10/20 05:31:38;;;;;;;7.27;4.57;;;;;;;4.43;100.00;101577.34;7387524;19;20434;-54
2022/10/20 05:34:13;;;;;;;6.80;3.60;;;;;;;4.55;100.00;101571.41;7393353;19;20390;-54
2022/10/20 05:36:42;;;;;;;9.77;5.07;;;;;;;4.71;100.00;101569.31;7384283;19;20418;-56
2022/10/20 05:39:12;;;;;;;18.10;6.97;;;;;;;5.02;100.00;101569.91;7393476;19;21288;-56
2022/10/20 05:41:41;;;;;;;8.73;5.73;;;;;;;5.84;100.00;101576.06;7388355;19;20438;-53
2022/10/20 05:44:13;;;;;;;23.33;10.17;;;;;;;5.66;100.00;101565.34;7393098;19;20366;-53
2022/10/20 05:46:43;;;;;;;52.57;23.90;;;;;;;5.29;100.00;101575.34;7389653;19;20425;-56
2022/10/20 05:49:17;;;;;;;25.13;10.90;;;;;;;5.68;100.00;101566.34;7397284;19;20782;-56
2022/10/20 05:51:48;;;;;;;15.60;8.13;;;;;;;5.76;100.00;101565.25;7394766;19;20421;-53
2022/10/20 05:54:17;;;;;;;27.43;14.20;;;;;;;5.63;100.00;101583.03;7400045;19;20694;-56
2022/10/20 05:56:47;;;;;;;9.33;4.80;;;;;;;5.83;100.00;101589.63;7397178;19;20412;-56
2022/10/20 05:59:16;;;;;;;7.70;4.67;;;;;;;5.74;100.00;101587.28;7400345;19;20404;-57
2022/10/20 06:01:51;;;;;;;10.00;4.60;;;;;;;5.71;100.00;101592.19;7394029;19;20415;-52
2022/10/20 06:04:26;;;;;;;11.97;5.67;;;;;;;6.06;100.00;101585.38;7402043;19;20411;-57
2022/10/20 06:06:57;;;;;;;12.20;4.20;;;;;;;5.87;100.00;101595.88;7391653;19;20446;-53
2022/10/20 06:09:26;;;;;;;11.30;5.00;;;;;;;5.79;100.00;101593.66;7398941;19;20401;-52
2022/10/20 06:11:56;;;;;;;7.07;3.97;;;;;;;5.89;100.00;101599.47;7393498;19;20419;-50
2022/10/20 06:14:25;;;;;;;7.13;3.43;;;;;;;5.65;100.00;101597.72;7399873;19;20460;-56
2022/10/20 06:16:55;;;;;;;7.17;3.80;;;;;;;5.23;100.00;101606.50;7397108;19;20411;-52
2022/10/20 06:19:28;;;;;;;5.10;3.23;;;;;;;5.19;100.00;101607.94;7399806;19;20371;-54
2022/10/20 06:21:57;;;;;;;15.13;5.03;;;;;;;5.14;100.00;101591.31;7397405;19;20461;-56
2022/10/20 06:24:35;;;;;;;8.43;3.77;;;;;;;5.07;100.00;101587.38;7399358;19;20471;-60
2022/10/20 06:27:04;;;;;;;9.80;3.80;;;;;;;5.05;100.00;101581.28;7396739;19;20769;-58
2022/10/20 06:29:33;;;;;;;7.10;3.67;;;;;;;4.95;100.00;101589.91;7398348;19;20391;-54
2022/10/20 06:32:03;;;;;;;7.70;4.47;;;;;;;4.85;100.00;101588.28;7391374;19;20415;-51
2022/10/20 06:34:35;;;;;;;7.43;4.03;;;;;;;4.86;100.00;101586.59;7400119;19;20434;-53
2022/10/20 06:37:04;;;;;;;10.07;4.00;;;;;;;4.87;100.00;101593.50;7391569;19;20430;-56
2022/10/20 06:39:34;;;;;;;37.73;18.27;;;;;;;4.98;100.00;101595.25;7399076;19;20379;-52
2022/10/20 06:42:04;;;;;;;14.73;4.67;;;;;;;4.98;100.00;101590.13;7393038;19;20442;-52
2022/10/20 06:44:40;;;;;;;21.73;9.93;;;;;;;5.08;100.00;101590.84;7398828;19;20403;-58
2022/10/20 06:47:09;;;;;;;17.07;7.30;;;;;;;5.15;100.00;101588.00;7399121;19;20943;-52
2022/10/20 06:49:41;;;;;;;14.27;4.60;;;;;;;5.17;100.00;101585.56;7397482;19;20387;-59
2022/10/20 06:52:11;;;;;;;8.37;4.40;;;;;;;5.05;100.00;101580.38;7397637;19;20431;-57
2022/10/20 06:54:40;;;;;;;6.30;3.93;;;;;;;4.99;100.00;101591.91;7397940;19;20407;-55
2022/10/20 06:57:10;;;;;;;15.90;3.60;;;;;;;4.98;100.00;101590.13;7395159;19;20750;-59
2022/10/20 06:59:39;;;;;;;8.87;4.10;;;;;;;5.00;100.00;101591.16;7398362;19;20388;-52
2022/10/20 07:02:11;;;;;;;8.77;4.00;;;;;;;5.04;100.00;101583.69;7389189;19;20960;-54
2022/10/20 07:04:43;;;;;;;8.43;5.23;;;;;;;5.09;100.00;101587.53;7397915;19;20383;-52
2022/10/20 07:07:12;;;;;;;6.93;3.53;;;;;;;5.11;100.00;101585.97;7396207;19;20415;-55
2022/10/20 07:09:42;;;;;;;15.77;6.00;;;;;;;5.14;100.00;101581.97;7396698;19;20371;-59
2022/10/20 07:12:11;;;;;;;14.77;3.90;;;;;;;5.18;100.00;101583.09;7395021;19;20407;-61
2022/10/20 07:14:41;;;;;;;9.20;3.80;;;;;;;5.23;100.00;101596.25;7397628;19;20380;-58
2022/10/20 07:17:10;;;;;;;6.00;3.37;;;;;;;5.26;100.00;101589.72;7397782;19;20418;-57
2022/10/20 07:19:42;;;;;;;9.60;4.10;;;;;;;5.32;100.00;101590.97;7397452;19;20392;-54
2022/10/20 07:22:12;;;;;;;5.50;3.30;;;;;;;5.34;100.00;101580.03;7392994;19;20439;-52
2022/10/20 07:24:41;;;;;;;7.00;3.30;;;;;;;5.39;100.00;101577.84;7391050;19;20388;-56
2022/10/20 07:27:10;;;;;;;9.83;4.00;;;;;;;5.46;100.00;101585.22;7394220;19;20383;-56
2022/10/20 07:29:40;;;;;;;8.97;4.20;;;;;;;5.50;100.00;101587.22;7396862;19;20407;-54
2022/10/20 07:32:09;;;;;;;5.67;3.37;;;;;;;5.58;100.00;101592.06;7389643;19;20417;-54
2022/10/20 07:34:39;;;;;;;10.23;3.90;;;;;;;5.68;100.00;101584.25;7397086;19;20391;-60
2022/10/20 07:37:11;;;;;;;6.50;3.30;;;;;;;5.76;100.00;101575.50;7392175;19;20949;-54
2022/10/20 07:39:40;;;;;;;11.00;4.83;;;;;;;5.79;100.00;101568.03;7396881;19;20387;-57
2022/10/20 07:42:09;;;;;;;12.13;4.43;;;;;;;5.88;100.00;101565.25;7395293;19;20431;-59
2022/10/20 07:44:39;;;;;;;8.70;3.57;;;;;;;5.92;100.00;101566.38;7389829;19;20426;-56
2022/10/20 07:47:08;;;;;;;12.23;5.27;;;;;;;6.35;100.00;101549.03;7396380;19;20388;-57
2022/10/20 07:49:38;;;;;;;185.80;78.17;;;;;;;6.75;100.00;101539.81;7391062;19;20450;-56
2022/10/20 07:52:15;;;;;;;45.87;20.07;;;;;;;6.91;100.00;101533.19;7397408;19;20424;-56
2022/10/20 07:54:45;;;;;;;10.73;5.57;;;;;;;6.95;100.00;101542.88;7391736;19;20993;-58
2022/10/20 07:57:14;;;;;;;11.17;5.53;;;;;;;6.79;100.00;101562.34;7396177;19;20404;-56
2022/10/20 07:59:43;;;;;;;10.37;4.70;;;;;;;6.69;100.00;101570.16;7392692;19;20795;-54
2022/10/20 08:02:15;;;;;;;14.03;5.10;;;;;;;6.66;100.00;101575.97;7393926;19;20418;-54
2022/10/20 08:04:45;;;;;;;9.73;3.73;;;;;;;6.64;100.00;101576.63;7392811;19;20410;-56
2022/10/20 08:07:17;;;;;;;9.63;5.03;;;;;;;6.85;100.00;101580.72;7399908;19;20401;-56
2022/10/20 08:09:47;;;;;;;19.13;9.23;;;;;;;6.97;100.00;101578.09;7390762;19;20441;-56
2022/10/20 08:12:16;;;;;;;15.70;6.90;;;;;;;6.97;100.00;101587.50;7393724;19;20413;-55
2022/10/20 08:14:46;;;;;;;11.03;6.37;;;;;;;7.06;100.00;101576.97;7392825;19;20422;-52
2022/10/20 08:17:15;;;;;;;3.73;2.47;;;;;;;7.03;100.00;101582.78;7395504;19;20655;-55
2022/10/20 08:19:45;;;;;;;7.80;2.87;;;;;;;7.06;100.00;101582.09;7392425;19;20528;-55
2022/10/20 08:22:33;;;;;;;9.83;4.77;;;;;;;7.11;100.00;101581.63;7392590;19;20427;-51
2022/10/20 08:25:03;;;;;;;12.20;5.93;;;;;;;7.21;100.00;101579.69;7392063;19;20435;-61
2022/10/20 08:27:33;;;;;;;15.10;6.73;;;;;;;7.32;100.00;101588.16;7397466;19;20394;-55
2022/10/20 08:30:02;;;;;;;10.00;3.90;;;;;;;7.35;100.00;101581.56;7390801;19;20419;-60
2022/10/20 08:32:52;;;;;;;6.17;3.27;;;;;;;7.32;100.00;101575.31;7393999;19;20388;-56
2022/10/20 08:35:22;;;;;;;5.70;2.73;;;;;;;7.32;100.00;101568.50;7388972;19;20459;-55
2022/10/20 08:37:54;;;;;;;5.20;2.60;;;;;;;7.35;100.00;101563.56;7395146;19;20427;-56
2022/10/20 08:40:26;;;;;;;6.63;2.90;;;;;;;7.36;100.00;101557.66;7390678;19;20449;-58
2022/10/20 08:42:56;;;;;;;8.57;4.20;;;;;;;7.45;100.00;101561.63;7394531;19;20422;-57
2022/10/20 08:45:28;;;;;;;7.73;3.70;;;;;;;7.52;100.00;101572.41;7391937;19;20411;-57
2022/10/20 08:47:59;;;;;;;8.43;3.23;;;;;;;7.51;100.00;101562.03;7397575;19;20902;-57
2022/10/20 08:50:30;;;;;;;6.43;3.10;;;;;;;7.55;100.00;101558.88;7390942;19;20440;-54
2022/10/20 08:53:02;;;;;;;7.77;2.90;;;;;;;7.57;100.00;101553.06;7398390;19;20415;-56
2022/10/20 08:55:34;;;;;;;4.93;3.10;;;;;;;7.67;100.00;101559.72;7392128;19;20418;-59
2022/10/20 08:58:05;;;;;;;11.10;2.53;;;;;;;7.69;100.00;101560.69;7394460;19;20387;-53
2022/10/20 09:00:37;;;;;;;7.23;3.20;;;;;;;7.78;100.00;101556.94;7390372;19;20797;-59
2022/10/20 09:03:16;;;;;;;11.10;2.67;;;;;;;7.85;100.00;101554.00;7393907;19;20392;-53
2022/10/20 09:05:47;;;;;;;5.03;2.10;;;;;;;8.04;100.00;101550.94;7393263;19;20411;-51
2022/10/20 09:08:30;;;;;;;6.63;2.70;;;;;;;8.16;100.00;101539.69;7394267;19;20387;-55
2022/10/20 09:11:01;;;;;;;7.07;2.03;;;;;;;8.26;100.00;101546.31;7390670;19;20958;-56
2022/10/20 09:13:33;;;;;;;5.00;2.10;;;;;;;8.39;100.00;101554.00;7391443;19;20387;-55
2022/10/20 09:16:06;;;;;;;8.60;2.43;;;;;;;8.55;100.00;101557.59;7397424;19;20426;-56
2022/10/20 09:18:36;;;;;;;7.50;2.83;;;;;;;8.62;100.00;101559.75;7391710;19;20422;-51
2022/10/20 09:21:07;;;;;;;6.97;2.70;;;;;;;8.70;100.00;101566.25;7391771;19;20435;-49
2022/10/20 09:23:41;;;;;;;3.83;2.20;;;;;;;8.72;100.00;101568.94;7390556;19;20383;-51
2022/10/20 09:26:16;;;;;;;6.83;2.20;;;;;;;8.71;100.00;101554.28;7392858;19;20911;-53
2022/10/20 09:29:08;;;;;;;49.83;22.03;;;;;;;8.93;100.00;101556.50;7390505;19;20403;-56
2022/10/20 09:31:44;;;;;;;8.77;3.70;;;;;;;9.16;100.00;101562.13;7391239;19;20427;-56
2022/10/20 09:34:28;;;;;;;10.90;4.30;;;;;;;9.16;100.00;101562.13;7390894;19;20412;-53
2022/10/20 09:37:03;;;;;;;38.17;18.50;;;;;;;9.24;100.00;101565.19;7392988;19;20414;-59
2022/10/20 09:39:43;;;;;;;32.00;16.30;;;;;;;9.39;100.00;101566.09;7383753;19;20430;-55
2022/10/20 09:42:15;;;;;;;40.13;18.80;;;;;;;9.51;100.00;101586.56;7391262;19;20945;-57
2022/10/20 09:44:50;;;;;;;8.10;3.80;;;;;;;9.55;100.00;101605.66;7392932;19;20394;-58
2022/10/20 09:47:21;;;;;;;11.67;4.20;;;;;;;9.50;100.00;101631.16;7386707;19;20465;-59
2022/10/20 09:49:54;;;;;;;7.00;3.53;;;;;;;9.62;100.00;101640.38;7392282;19;20407;-53
2022/10/20 09:52:33;;;;;;;5.37;2.83;;;;;;;9.48;100.00;101643.03;7389217;19;20530;-54
2022/10/20 09:55:09;;;;;;;6.20;2.77;;;;;;;9.44;100.00;101666.84;7392635;19;20384;-54
2022/10/20 09:57:39;;;;;;;5.80;2.50;;;;;;;9.21;100.00;101674.03;7381066;19;20444;-55
2022/10/20 10:00:23;;;;;;;6.30;2.07;;;;;;;9.12;100.00;101683.78;7388595;19;20421;-54
2022/10/20 10:16:59;;;;;;;48.50;22.93;;;;;;;10.15;100.00;101682.16;7422949;19;21044;-50
2022/10/20 10:19:31;;;;;;;17.47;7.80;;;;;;;10.39;100.00;101675.84;7425204;19;20430;-54
2022/10/20 10:22:02;;;;;;;6.30;2.90;;;;;;;10.27;100.00;101670.84;7425016;19;20434;-58
2022/10/20 10:24:39;;;;;;;10.27;4.00;;;;;;;10.30;100.00;101680.44;7422308;19;20387;-50
2022/10/20 10:27:21;;;;;;;12.10;4.67;;;;;;;10.22;100.00;101673.97;7419478;19;21038;-52
2022/10/20 10:29:50;;;;;;;7.37;2.60;;;;;;;10.13;100.00;101671.75;7425100;19;20737;-54
2022/10/20 10:32:26;;;;;;;12.50;5.90;;;;;;;10.21;100.00;101675.63;7417321;19;21434;-50
2022/10/20 10:35:15;;;;;;;6.33;2.40;;;;;;;10.32;100.00;101673.72;7425731;19;20427;-54
2022/10/20 10:37:46;;;;;;;7.13;2.10;;;;;;;10.37;100.00;101672.25;7428531;19;20458;-43
2022/10/20 10:40:18;;;;;;;8.50;2.10;;;;;;;10.44;100.00;101649.41;7430089;19;20423;-45
2022/10/20 10:43:01;;;;;;;7.73;2.20;;;;;;;10.53;100.00;101652.53;7425787;19;20446;-42
2022/10/20 10:45:43;;;;;;;3.40;2.00;;;;;;;10.48;100.00;101659.13;7426125;19;20415;-43
2022/10/20 10:48:32;;;;;;;4.97;2.40;;;;;;;10.50;100.00;101657.50;7426303;19;20399;-42
2022/10/20 10:51:04;;;;;;;3.90;2.13;;;;;;;10.46;100.00;101650.41;7420363;19;20411;-42
2022/10/20 10:53:44;;;;;;;6.27;2.30;;;;;;;10.58;100.00;101651.09;7424125;19;20419;-42
2022/10/20 10:56:18;;;;;;;4.53;2.57;;;;;;;10.66;100.00;101638.59;7423275;19;20428;-45
2022/10/20 10:58:50;;;;;;;5.27;2.60;;;;;;;10.80;100.00;101634.22;7426981;19;20394;-45
2022/10/20 11:01:41;;;;;;;4.10;2.03;;;;;;;10.73;100.00;101621.78;7422738;19;20435;-46
2022/10/20 11:04:42;;;;;;;5.37;2.67;;;;;;;10.89;100.00;101631.25;7422897;19;20426;-44
2022/10/20 11:07:18;;;;;;;8.10;2.60;;;;;;;10.82;100.00;101619.69;7424973;19;20381;-41
2022/10/20 11:09:57;;;;;;;8.30;2.73;;;;;;;10.60;100.00;101597.88;7425330;19;20378;-43
2022/10/20 11:12:41;;;;;;;7.67;3.20;;;;;;;10.44;100.00;101587.50;7424482;19;20406;-43
2022/10/20 11:15:24;;;;;;;7.60;3.63;;;;;;;10.39;100.00;101585.53;7421903;19;20416;-43
2022/10/20 11:17:57;;;;;;;4.60;2.80;;;;;;;10.47;100.00;101574.78;7422285;19;20372;-41
2022/10/20 11:20:35;;;;;;;6.60;3.83;;;;;;;10.47;100.00;101567.03;7422109;19;20415;-42
2022/10/20 11:23:31;;;;;;;3.80;2.37;;;;;;;10.51;100.00;101562.13;7423991;19;20426;-41
2022/10/20 11:26:24;;;;;;;4.30;2.80;;;;;;;10.61;100.00;101563.53;7413790;19;20434;-42
2022/10/20 11:28:58;;;;;;;4.63;2.90;;;;;;;10.61;100.00;101560.94;7396915;19;20383;-42
2022/10/20 11:31:31;;;;;;;5.80;2.90;;;;;;;10.71;100.00;101570.06;7391553;19;20961;-42
2022/10/20 11:34:06;;;;;;;5.47;2.80;;;;;;;10.75;100.00;101556.53;7388379;19;20446;-43
2022/10/20 11:36:43;;;;;;;5.73;3.03;;;;;;;10.76;100.00;101555.72;7393364;19;20447;-42
2022/10/20 11:39:19;;;;;;;4.10;2.70;;;;;;;10.82;100.00;101544.81;7395281;19;20420;-43
2022/10/20 11:41:50;;;;;;;5.93;3.10;;;;;;;10.92;100.00;101548.81;7390420;19;20402;-44
2022/10/20 11:44:25;;;;;;;7.43;3.10;;;;;;;11.10;100.00;101533.38;7391583;19;20424;-43
2022/10/20 11:46:59;;;;;;;5.90;2.50;;;;;;;11.19;100.00;101539.00;7382868;19;20788;-44
2022/10/20 11:49:28;;;;;;;13.03;3.50;;;;;;;11.33;100.00;101534.56;7384554;19;20380;-44
2022/10/20 11:52:25;;;;;;;6.70;3.27;;;;;;;11.54;100.00;101533.00;7388119;19;20725;-43
2022/10/20 11:55:06;;;;;;;4.40;2.80;;;;;;;11.59;100.00;101527.25;7398567;19;20434;-46
2022/10/20 11:57:47;;;;;;;5.53;3.30;;;;;;;11.65;100.00;101529.25;7387656;19;20411;-43
2022/10/20 12:00:32;;;;;;;5.47;3.20;;;;;;;11.62;100.00;101518.75;7398516;19;20398;-45
2022/10/20 12:03:27;;;;;;;4.93;2.83;;;;;;;11.76;100.00;101527.19;7389476;19;20421;-47